sensor_id;sensor_type;location;lat;lon;timestamp;temperature;humidity
580;DHT22;276;48.392;9.950;2023-03-01T00:00:39;4.40;94.80
580;DHT22;276;48.392;9.950;2023-03-01T00:03:11;4.40;94.80
580;DHT22;276;48.392;9.950;2023-03-01T00:05:44;4.40;94.90
580;DHT22;276;48.392;9.950;2023-03-01T00:08:10;4.40;95.00
580;DHT22;276;48.392;9.950;2023-03-01T00:10:35;4.40;95.00
580;DHT22;276;48.392;9.950;2023-03-01T00:13:01;4.30;94.90
580;DHT22;276;48.392;9.950;2023-03-01T00:15:27;4.30;95.10
580;DHT22;276;48.392;9.950;2023-03-01T00:17:52;4.30;95.10
580;DHT22;276;48.392;9.950;2023-03-01T00:20:18;4.40;95.10
580;DHT22;276;48.392;9.950;2023-03-01T00:22:43;4.40;95.20
580;DHT22;276;48.392;9.950;2023-03-01T00:25:11;4.30;95.10
580;DHT22;276;48.392;9.950;2023-03-01T00:27:38;4.30;95.20
580;DHT22;276;48.392;9.950;2023-03-01T00:30:06;4.30;95.30
580;DHT22;276;48.392;9.950;2023-03-01T00:32:32;4.30;95.30
580;DHT22;276;48.392;9.950;2023-03-01T00:34:58;4.30;95.30
580;DHT22;276;48.392;9.950;2023-03-01T00:37:28;4.30;95.30
580;DHT22;276;48.392;9.950;2023-03-01T00:39:53;4.40;95.30
580;DHT22;276;48.392;9.950;2023-03-01T00:42:19;4.40;95.40
580;DHT22;276;48.392;9.950;2023-03-01T00:44:44;4.40;95.30
580;DHT22;276;48.392;9.950;2023-03-01T00:47:10;4.40;95.30
580;DHT22;276;48.392;9.950;2023-03-01T00:49:36;4.30;95.30
580;DHT22;276;48.392;9.950;2023-03-01T00:52:01;4.30;95.40
580;DHT22;276;48.392;9.950;2023-03-01T00:54:27;4.30;95.40
580;DHT22;276;48.392;9.950;2023-03-01T00:56:52;4.30;95.50
580;DHT22;276;48.392;9.950;2023-03-01T00:59:18;4.30;95.50
580;DHT22;276;48.392;9.950;2023-03-01T01:01:44;4.30;95.50
580;DHT22;276;48.392;9.950;2023-03-01T01:04:12;4.30;95.60
580;DHT22;276;48.392;9.950;2023-03-01T01:06:40;4.30;95.60
580;DHT22;276;48.392;9.950;2023-03-01T01:09:09;4.30;95.60
580;DHT22;276;48.392;9.950;2023-03-01T01:11:49;4.40;95.60
580;DHT22;276;48.392;9.950;2023-03-01T01:14:15;4.40;95.60
580;DHT22;276;48.392;9.950;2023-03-01T01:16:41;4.40;95.50
580;DHT22;276;48.392;9.950;2023-03-01T01:19:09;4.40;95.60
580;DHT22;276;48.392;9.950;2023-03-01T01:21:35;4.40;95.50
580;DHT22;276;48.392;9.950;2023-03-01T01:24:05;4.40;95.50
580;DHT22;276;48.392;9.950;2023-03-01T01:26:32;4.40;95.50
580;DHT22;276;48.392;9.950;2023-03-01T01:28:59;4.30;95.50
580;DHT22;276;48.392;9.950;2023-03-01T01:31:25;4.30;95.50
580;DHT22;276;48.392;9.950;2023-03-01T01:33:55;4.30;95.60
580;DHT22;276;48.392;9.950;2023-03-01T01:36:21;4.30;95.60
580;DHT22;276;48.392;9.950;2023-03-01T01:38:46;4.30;95.70
580;DHT22;276;48.392;9.950;2023-03-01T01:41:13;4.30;95.80
580;DHT22;276;48.392;9.950;2023-03-01T01:43:42;4.30;95.70
580;DHT22;276;48.392;9.950;2023-03-01T01:51:26;4.40;95.80
580;DHT22;276;48.392;9.950;2023-03-01T01:54:00;4.50;95.90
580;DHT22;276;48.392;9.950;2023-03-01T01:56:30;4.50;95.80
580;DHT22;276;48.392;9.950;2023-03-01T01:58:56;4.50;95.80
580;DHT22;276;48.392;9.950;2023-03-01T02:01:25;4.40;96.00
580;DHT22;276;48.392;9.950;2023-03-01T02:03:53;4.50;95.80
580;DHT22;276;48.392;9.950;2023-03-01T02:06:35;4.50;95.80
580;DHT22;276;48.392;9.950;2023-03-01T02:09:08;4.50;95.80
580;DHT22;276;48.392;9.950;2023-03-01T02:11:38;4.50;95.80
580;DHT22;276;48.392;9.950;2023-03-01T02:14:06;4.50;95.80
580;DHT22;276;48.392;9.950;2023-03-01T02:16:32;4.50;95.80
580;DHT22;276;48.392;9.950;2023-03-01T02:18:58;4.40;95.80
580;DHT22;276;48.392;9.950;2023-03-01T02:26:56;4.50;95.80
580;DHT22;276;48.392;9.950;2023-03-01T02:29:23;4.50;95.80
580;DHT22;276;48.392;9.950;2023-03-01T02:31:51;4.50;95.80
580;DHT22;276;48.392;9.950;2023-03-01T02:34:20;4.50;95.80
580;DHT22;276;48.392;9.950;2023-03-01T02:37:03;4.60;95.80
580;DHT22;276;48.392;9.950;2023-03-01T02:39:48;4.50;95.70
580;DHT22;276;48.392;9.950;2023-03-01T02:42:18;4.50;95.90
580;DHT22;276;48.392;9.950;2023-03-01T02:44:49;4.40;95.80
580;DHT22;276;48.392;9.950;2023-03-01T02:47:15;4.40;95.90
580;DHT22;276;48.392;9.950;2023-03-01T02:49:43;4.40;96.00
580;DHT22;276;48.392;9.950;2023-03-01T02:55:13;4.40;96.00
580;DHT22;276;48.392;9.950;2023-03-01T02:57:44;4.40;96.00
580;DHT22;276;48.392;9.950;2023-03-01T03:00:21;4.40;96.00
580;DHT22;276;48.392;9.950;2023-03-01T03:02:50;4.40;96.00
580;DHT22;276;48.392;9.950;2023-03-01T03:05:20;4.30;95.90
580;DHT22;276;48.392;9.950;2023-03-01T03:07:49;4.30;96.00
580;DHT22;276;48.392;9.950;2023-03-01T03:10:20;4.30;96.10
580;DHT22;276;48.392;9.950;2023-03-01T03:12:57;4.30;96.10
580;DHT22;276;48.392;9.950;2023-03-01T03:15:27;4.30;96.20
580;DHT22;276;48.392;9.950;2023-03-01T03:17:53;4.40;96.20
580;DHT22;276;48.392;9.950;2023-03-01T03:20:20;4.40;96.20
580;DHT22;276;48.392;9.950;2023-03-01T03:22:53;4.40;96.10
580;DHT22;276;48.392;9.950;2023-03-01T03:25:20;4.40;96.00
580;DHT22;276;48.392;9.950;2023-03-01T03:27:49;4.40;96.00
580;DHT22;276;48.392;9.950;2023-03-01T03:30:26;4.30;96.00
580;DHT22;276;48.392;9.950;2023-03-01T03:32:52;4.40;96.00
580;DHT22;276;48.392;9.950;2023-03-01T03:35:28;4.30;95.90
580;DHT22;276;48.392;9.950;2023-03-01T03:37:58;4.20;96.00
580;DHT22;276;48.392;9.950;2023-03-01T03:40:30;4.20;96.10
580;DHT22;276;48.392;9.950;2023-03-01T03:42:56;4.20;96.10
580;DHT22;276;48.392;9.950;2023-03-01T03:45:21;4.20;96.10
580;DHT22;276;48.392;9.950;2023-03-01T03:47:52;4.10;96.10
580;DHT22;276;48.392;9.950;2023-03-01T03:50:18;4.10;96.10
580;DHT22;276;48.392;9.950;2023-03-01T03:52:46;4.10;96.20
580;DHT22;276;48.392;9.950;2023-03-01T03:55:14;4.10;96.20
580;DHT22;276;48.392;9.950;2023-03-01T03:57:46;4.20;96.30
580;DHT22;276;48.392;9.950;2023-03-01T04:00:20;4.20;96.20
580;DHT22;276;48.392;9.950;2023-03-01T04:02:48;4.20;96.10
580;DHT22;276;48.392;9.950;2023-03-01T04:05:15;4.20;96.00
580;DHT22;276;48.392;9.950;2023-03-01T04:07:44;4.20;96.10
580;DHT22;276;48.392;9.950;2023-03-01T04:10:16;4.20;96.10
580;DHT22;276;48.392;9.950;2023-03-01T04:12:42;4.20;96.10
580;DHT22;276;48.392;9.950;2023-03-01T04:15:11;4.10;96.00
580;DHT22;276;48.392;9.950;2023-03-01T04:17:40;4.10;96.10
580;DHT22;276;48.392;9.950;2023-03-01T04:20:11;4.20;96.20
580;DHT22;276;48.392;9.950;2023-03-01T04:22:37;4.20;96.20
580;DHT22;276;48.392;9.950;2023-03-01T04:25:03;4.20;96.20
580;DHT22;276;48.392;9.950;2023-03-01T04:27:34;4.20;96.10
580;DHT22;276;48.392;9.950;2023-03-01T04:30:03;4.20;96.10
580;DHT22;276;48.392;9.950;2023-03-01T04:32:31;4.20;96.10
580;DHT22;276;48.392;9.950;2023-03-01T04:34:57;4.10;96.10
580;DHT22;276;48.392;9.950;2023-03-01T04:37:25;4.10;96.10
580;DHT22;276;48.392;9.950;2023-03-01T04:39:55;4.10;96.20
580;DHT22;276;48.392;9.950;2023-03-01T04:42:20;4.10;96.10
580;DHT22;276;48.392;9.950;2023-03-01T04:44:46;4.10;96.10
580;DHT22;276;48.392;9.950;2023-03-01T04:47:12;4.00;96.10
580;DHT22;276;48.392;9.950;2023-03-01T04:49:40;4.00;96.20
580;DHT22;276;48.392;9.950;2023-03-01T04:52:08;3.90;96.30
580;DHT22;276;48.392;9.950;2023-03-01T04:54:35;3.90;96.40
580;DHT22;276;48.392;9.950;2023-03-01T04:57:02;3.90;96.50
580;DHT22;276;48.392;9.950;2023-03-01T04:59:28;3.90;96.60
580;DHT22;276;48.392;9.950;2023-03-01T05:01:59;3.90;96.80
580;DHT22;276;48.392;9.950;2023-03-01T05:04:25;3.90;96.80
580;DHT22;276;48.392;9.950;2023-03-01T05:06:51;3.90;96.60
580;DHT22;276;48.392;9.950;2023-03-01T05:09:19;4.00;96.60
580;DHT22;276;48.392;9.950;2023-03-01T05:11:44;4.00;96.50
580;DHT22;276;48.392;9.950;2023-03-01T05:14:10;4.00;96.50
580;DHT22;276;48.392;9.950;2023-03-01T05:16:38;4.00;96.50
580;DHT22;276;48.392;9.950;2023-03-01T05:19:04;4.00;96.50
580;DHT22;276;48.392;9.950;2023-03-01T05:21:40;3.90;96.50
580;DHT22;276;48.392;9.950;2023-03-01T05:24:25;3.90;96.60
580;DHT22;276;48.392;9.950;2023-03-01T05:26:54;3.90;96.60
580;DHT22;276;48.392;9.950;2023-03-01T05:29:24;4.00;96.60
580;DHT22;276;48.392;9.950;2023-03-01T05:31:53;4.00;96.60
580;DHT22;276;48.392;9.950;2023-03-01T05:34:26;4.00;96.70
580;DHT22;276;48.392;9.950;2023-03-01T05:36:52;4.00;96.70
580;DHT22;276;48.392;9.950;2023-03-01T05:39:22;3.90;96.50
580;DHT22;276;48.392;9.950;2023-03-01T05:41:52;3.90;96.60
580;DHT22;276;48.392;9.950;2023-03-01T05:44:20;3.90;96.60
580;DHT22;276;48.392;9.950;2023-03-01T05:46:46;3.90;96.70
580;DHT22;276;48.392;9.950;2023-03-01T05:49:13;3.90;96.80
580;DHT22;276;48.392;9.950;2023-03-01T05:51:42;3.90;96.80
580;DHT22;276;48.392;9.950;2023-03-01T05:54:09;4.00;96.70
580;DHT22;276;48.392;9.950;2023-03-01T05:56:36;4.00;96.70
580;DHT22;276;48.392;9.950;2023-03-01T05:59:03;4.10;96.60
580;DHT22;276;48.392;9.950;2023-03-01T06:01:30;4.00;96.40
580;DHT22;276;48.392;9.950;2023-03-01T06:03:58;4.10;96.50
580;DHT22;276;48.392;9.950;2023-03-01T06:06:24;4.10;96.50
580;DHT22;276;48.392;9.950;2023-03-01T06:08:51;4.10;98.10
580;DHT22;276;48.392;9.950;2023-03-01T06:11:16;4.20;97.50
580;DHT22;276;48.392;9.950;2023-03-01T06:13:43;4.30;97.00
580;DHT22;276;48.392;9.950;2023-03-01T06:16:14;4.30;96.60
580;DHT22;276;48.392;9.950;2023-03-01T06:18:40;4.30;96.20
580;DHT22;276;48.392;9.950;2023-03-01T06:21:07;4.30;96.10
580;DHT22;276;48.392;9.950;2023-03-01T06:23:33;4.30;96.10
580;DHT22;276;48.392;9.950;2023-03-01T06:26:06;4.30;96.00
580;DHT22;276;48.392;9.950;2023-03-01T06:28:31;4.30;96.00
580;DHT22;276;48.392;9.950;2023-03-01T06:30:59;4.30;96.10
580;DHT22;276;48.392;9.950;2023-03-01T06:33:25;4.40;96.10
580;DHT22;276;48.392;9.950;2023-03-01T06:35:56;4.40;96.00
580;DHT22;276;48.392;9.950;2023-03-01T06:38:22;4.40;96.00
580;DHT22;276;48.392;9.950;2023-03-01T06:40:55;4.40;95.90
580;DHT22;276;48.392;9.950;2023-03-01T06:43:22;4.40;95.70
580;DHT22;276;48.392;9.950;2023-03-01T06:45:48;4.30;95.60
580;DHT22;276;48.392;9.950;2023-03-01T06:48:14;4.30;95.80
580;DHT22;276;48.392;9.950;2023-03-01T06:50:42;4.30;95.80
580;DHT22;276;48.392;9.950;2023-03-01T06:53:10;4.20;95.80
580;DHT22;276;48.392;9.950;2023-03-01T06:55:36;4.20;95.90
580;DHT22;276;48.392;9.950;2023-03-01T06:58:06;4.20;95.80
580;DHT22;276;48.392;9.950;2023-03-01T07:00:32;4.20;95.80
580;DHT22;276;48.392;9.950;2023-03-01T07:03:05;4.20;95.80
580;DHT22;276;48.392;9.950;2023-03-01T07:05:33;4.10;95.70
580;DHT22;276;48.392;9.950;2023-03-01T07:08:02;4.10;95.60
580;DHT22;276;48.392;9.950;2023-03-01T07:10:30;4.10;95.80
580;DHT22;276;48.392;9.950;2023-03-01T07:12:58;4.10;95.90
580;DHT22;276;48.392;9.950;2023-03-01T07:15:27;4.10;95.80
580;DHT22;276;48.392;9.950;2023-03-01T07:17:53;4.10;95.70
580;DHT22;276;48.392;9.950;2023-03-01T07:20:19;4.20;95.60
580;DHT22;276;48.392;9.950;2023-03-01T07:22:50;4.10;95.50
580;DHT22;276;48.392;9.950;2023-03-01T07:25:17;4.00;95.50
580;DHT22;276;48.392;9.950;2023-03-01T07:27:43;4.00;95.70
580;DHT22;276;48.392;9.950;2023-03-01T07:30:11;4.00;95.70
580;DHT22;276;48.392;9.950;2023-03-01T07:32:39;4.00;95.80
580;DHT22;276;48.392;9.950;2023-03-01T07:35:05;4.00;95.80
580;DHT22;276;48.392;9.950;2023-03-01T07:37:31;4.00;95.80
580;DHT22;276;48.392;9.950;2023-03-01T07:39:57;4.10;95.80
580;DHT22;276;48.392;9.950;2023-03-01T07:42:25;4.20;95.50
580;DHT22;276;48.392;9.950;2023-03-01T07:44:53;4.20;95.50
580;DHT22;276;48.392;9.950;2023-03-01T07:47:21;4.30;95.40
580;DHT22;276;48.392;9.950;2023-03-01T07:49:47;4.20;95.30
580;DHT22;276;48.392;9.950;2023-03-01T07:52:15;4.30;95.50
580;DHT22;276;48.392;9.950;2023-03-01T07:54:45;4.30;95.30
580;DHT22;276;48.392;9.950;2023-03-01T07:57:10;4.40;95.20
580;DHT22;276;48.392;9.950;2023-03-01T07:59:38;4.40;95.10
580;DHT22;276;48.392;9.950;2023-03-01T08:02:06;4.40;95.10
580;DHT22;276;48.392;9.950;2023-03-01T08:04:35;4.30;95.20
580;DHT22;276;48.392;9.950;2023-03-01T08:07:00;4.30;95.40
580;DHT22;276;48.392;9.950;2023-03-01T08:09:28;4.20;95.30
580;DHT22;276;48.392;9.950;2023-03-01T08:11:59;4.20;95.60
580;DHT22;276;48.392;9.950;2023-03-01T08:14:25;4.10;95.70
580;DHT22;276;48.392;9.950;2023-03-01T08:16:50;4.20;95.60
580;DHT22;276;48.392;9.950;2023-03-01T08:19:18;4.20;95.60
580;DHT22;276;48.392;9.950;2023-03-01T08:21:44;4.30;95.50
580;DHT22;276;48.392;9.950;2023-03-01T08:24:10;4.40;95.60
580;DHT22;276;48.392;9.950;2023-03-01T08:26:37;4.40;95.70
580;DHT22;276;48.392;9.950;2023-03-01T08:29:03;4.50;95.80
580;DHT22;276;48.392;9.950;2023-03-01T08:31:35;4.50;95.60
580;DHT22;276;48.392;9.950;2023-03-01T08:34:02;4.50;95.70
580;DHT22;276;48.392;9.950;2023-03-01T08:36:33;4.50;95.30
580;DHT22;276;48.392;9.950;2023-03-01T08:39:00;4.60;95.40
580;DHT22;276;48.392;9.950;2023-03-01T08:41:27;4.60;95.30
580;DHT22;276;48.392;9.950;2023-03-01T08:43:57;4.60;95.00
580;DHT22;276;48.392;9.950;2023-03-01T08:46:31;4.50;94.90
580;DHT22;276;48.392;9.950;2023-03-01T08:48:59;4.50;94.90
580;DHT22;276;48.392;9.950;2023-03-01T08:51:30;4.50;95.10
580;DHT22;276;48.392;9.950;2023-03-01T08:53:57;4.50;95.10
580;DHT22;276;48.392;9.950;2023-03-01T08:56:25;4.50;95.10
580;DHT22;276;48.392;9.950;2023-03-01T08:58:51;4.60;95.20
580;DHT22;276;48.392;9.950;2023-03-01T09:01:18;4.60;95.10
580;DHT22;276;48.392;9.950;2023-03-01T09:03:44;4.60;95.10
580;DHT22;276;48.392;9.950;2023-03-01T09:06:10;4.60;95.20
580;DHT22;276;48.392;9.950;2023-03-01T09:08:38;4.60;94.80
580;DHT22;276;48.392;9.950;2023-03-01T09:11:05;4.60;94.90
580;DHT22;276;48.392;9.950;2023-03-01T09:13:31;4.60;94.90
580;DHT22;276;48.392;9.950;2023-03-01T09:15:58;4.60;94.90
580;DHT22;276;48.392;9.950;2023-03-01T09:18:24;4.60;95.00
580;DHT22;276;48.392;9.950;2023-03-01T09:20:52;4.60;95.40
580;DHT22;276;48.392;9.950;2023-03-01T09:23:21;4.50;95.00
580;DHT22;276;48.392;9.950;2023-03-01T09:25:49;4.50;95.10
580;DHT22;276;48.392;9.950;2023-03-01T09:28:14;4.40;95.00
580;DHT22;276;48.392;9.950;2023-03-01T09:30:40;4.40;95.20
580;DHT22;276;48.392;9.950;2023-03-01T09:33:08;4.40;95.30
580;DHT22;276;48.392;9.950;2023-03-01T09:35:40;4.30;95.40
580;DHT22;276;48.392;9.950;2023-03-01T09:38:11;4.40;95.50
580;DHT22;276;48.392;9.950;2023-03-01T09:40:42;4.50;95.50
580;DHT22;276;48.392;9.950;2023-03-01T09:43:33;4.50;95.30
580;DHT22;276;48.392;9.950;2023-03-01T09:46:08;4.50;95.30
580;DHT22;276;48.392;9.950;2023-03-01T09:48:46;4.50;95.30
580;DHT22;276;48.392;9.950;2023-03-01T09:51:18;4.50;95.40
580;DHT22;276;48.392;9.950;2023-03-01T09:53:47;4.60;95.20
580;DHT22;276;48.392;9.950;2023-03-01T10:07:12;4.50;95.50
580;DHT22;276;48.392;9.950;2023-03-01T10:09:42;4.60;95.60
580;DHT22;276;48.392;9.950;2023-03-01T10:12:14;4.60;95.60
580;DHT22;276;48.392;9.950;2023-03-01T10:20:22;4.80;95.70
580;DHT22;276;48.392;9.950;2023-03-01T10:22:49;4.90;95.30
580;DHT22;276;48.392;9.950;2023-03-01T10:27:59;5.00;95.20
580;DHT22;276;48.392;9.950;2023-03-01T10:30:35;5.00;95.10
580;DHT22;276;48.392;9.950;2023-03-01T10:33:16;5.00;94.90
580;DHT22;276;48.392;9.950;2023-03-01T10:35:47;5.10;95.00
580;DHT22;276;48.392;9.950;2023-03-01T10:38:15;5.10;95.00
580;DHT22;276;48.392;9.950;2023-03-01T10:41:06;5.30;95.20
580;DHT22;276;48.392;9.950;2023-03-01T10:43:58;5.40;94.60
580;DHT22;276;48.392;9.950;2023-03-01T10:46:31;5.50;94.50
580;DHT22;276;48.392;9.950;2023-03-01T10:49:17;5.70;94.40
580;DHT22;276;48.392;9.950;2023-03-01T10:51:48;6.00;94.40
580;DHT22;276;48.392;9.950;2023-03-01T10:57:09;6.50;94.00
580;DHT22;276;48.392;9.950;2023-03-01T10:59:39;6.90;93.80
580;DHT22;276;48.392;9.950;2023-03-01T11:02:42;7.20;92.90
580;DHT22;276;48.392;9.950;2023-03-01T11:05:22;7.70;92.40
580;DHT22;276;48.392;9.950;2023-03-01T11:10:35;8.50;91.40
580;DHT22;276;48.392;9.950;2023-03-01T11:13:18;8.90;90.90
580;DHT22;276;48.392;9.950;2023-03-01T11:16:02;9.20;90.30
580;DHT22;276;48.392;9.950;2023-03-01T11:18:31;9.70;90.00
580;DHT22;276;48.392;9.950;2023-03-01T11:21:00;10.30;88.10
580;DHT22;276;48.392;9.950;2023-03-01T11:23:28;10.70;86.40
580;DHT22;276;48.392;9.950;2023-03-01T11:25:56;11.00;84.30
580;DHT22;276;48.392;9.950;2023-03-01T11:28:25;11.20;82.60
580;DHT22;276;48.392;9.950;2023-03-01T11:31:10;11.50;82.40
580;DHT22;276;48.392;9.950;2023-03-01T11:34:05;11.90;82.10
580;DHT22;276;48.392;9.950;2023-03-01T11:36:56;12.10;78.30
580;DHT22;276;48.392;9.950;2023-03-01T11:42:06;11.90;76.30
580;DHT22;276;48.392;9.950;2023-03-01T11:44:36;11.80;77.70
580;DHT22;276;48.392;9.950;2023-03-01T11:52:48;11.30;77.40
580;DHT22;276;48.392;9.950;2023-03-01T11:58:14;11.20;78.20
580;DHT22;276;48.392;9.950;2023-03-01T12:14:51;10.50;78.70
580;DHT22;276;48.392;9.950;2023-03-01T12:23:16;10.20;79.00
580;DHT22;276;48.392;9.950;2023-03-01T12:32:15;10.10;80.50
580;DHT22;276;48.392;9.950;2023-03-01T12:35:26;10.00;80.60
580;DHT22;276;48.392;9.950;2023-03-01T12:38:17;9.90;81.80
580;DHT22;276;48.392;9.950;2023-03-01T12:40:55;9.90;82.60
580;DHT22;276;48.392;9.950;2023-03-01T12:48:55;9.60;83.30
580;DHT22;276;48.392;9.950;2023-03-01T12:51:26;9.60;83.30
580;DHT22;276;48.392;9.950;2023-03-01T12:53:57;9.50;83.30
580;DHT22;276;48.392;9.950;2023-03-01T12:56:27;9.40;84.00
580;DHT22;276;48.392;9.950;2023-03-01T13:07:31;9.10;84.90
580;DHT22;276;48.392;9.950;2023-03-01T13:15:26;9.00;85.40
580;DHT22;276;48.392;9.950;2023-03-01T13:17:57;8.90;85.40
580;DHT22;276;48.392;9.950;2023-03-01T13:31:01;8.60;86.80
580;DHT22;276;48.392;9.950;2023-03-01T13:35:54;8.60;87.10
580;DHT22;276;48.392;9.950;2023-03-01T13:46:48;8.70;87.60
580;DHT22;276;48.392;9.950;2023-03-01T13:49:20;8.60;87.40
580;DHT22;276;48.392;9.950;2023-03-01T13:51:50;8.60;87.60
580;DHT22;276;48.392;9.950;2023-03-01T13:54:26;8.60;88.20
580;DHT22;276;48.392;9.950;2023-03-01T13:57:00;8.60;88.30
580;DHT22;276;48.392;9.950;2023-03-01T13:59:28;8.60;88.50
580;DHT22;276;48.392;9.950;2023-03-01T14:01:57;8.70;88.70
580;DHT22;276;48.392;9.950;2023-03-01T14:04:26;8.60;88.40
580;DHT22;276;48.392;9.950;2023-03-01T14:07:27;8.60;88.70
580;DHT22;276;48.392;9.950;2023-03-01T14:10:01;8.50;88.70
580;DHT22;276;48.392;9.950;2023-03-01T14:15:29;8.50;88.70
580;DHT22;276;48.392;9.950;2023-03-01T14:18:16;8.60;88.80
580;DHT22;276;48.392;9.950;2023-03-01T14:20:45;8.60;88.80
580;DHT22;276;48.392;9.950;2023-03-01T14:23:22;8.60;89.10
580;DHT22;276;48.392;9.950;2023-03-01T14:25:50;8.50;88.90
580;DHT22;276;48.392;9.950;2023-03-01T14:28:27;8.50;89.20
580;DHT22;276;48.392;9.950;2023-03-01T14:30:58;8.60;89.20
580;DHT22;276;48.392;9.950;2023-03-01T14:36:00;8.70;89.40
580;DHT22;276;48.392;9.950;2023-03-01T14:43:46;8.90;88.90
580;DHT22;276;48.392;9.950;2023-03-01T14:49:07;8.80;88.20
580;DHT22;276;48.392;9.950;2023-03-01T14:51:42;8.70;88.50
580;DHT22;276;48.392;9.950;2023-03-01T14:54:28;8.60;89.00
580;DHT22;276;48.392;9.950;2023-03-01T14:57:00;8.50;89.00
580;DHT22;276;48.392;9.950;2023-03-01T14:59:27;8.50;89.50
580;DHT22;276;48.392;9.950;2023-03-01T15:01:57;8.60;89.60
580;DHT22;276;48.392;9.950;2023-03-01T15:04:24;8.50;89.40
580;DHT22;276;48.392;9.950;2023-03-01T15:06:54;8.50;89.70
580;DHT22;276;48.392;9.950;2023-03-01T15:09:34;8.50;89.80
580;DHT22;276;48.392;9.950;2023-03-01T15:12:00;8.50;90.30
580;DHT22;276;48.392;9.950;2023-03-01T15:14:46;8.50;90.00
580;DHT22;276;48.392;9.950;2023-03-01T15:17:35;8.50;89.70
580;DHT22;276;48.392;9.950;2023-03-01T15:20:07;8.50;90.10
580;DHT22;276;48.392;9.950;2023-03-01T15:22:44;8.40;90.10
580;DHT22;276;48.392;9.950;2023-03-01T15:25:25;8.40;90.10
580;DHT22;276;48.392;9.950;2023-03-01T15:27:53;8.40;90.20
580;DHT22;276;48.392;9.950;2023-03-01T15:30:33;8.40;90.00
580;DHT22;276;48.392;9.950;2023-03-01T15:33:25;8.40;90.20
580;DHT22;276;48.392;9.950;2023-03-01T15:35:56;8.40;90.30
580;DHT22;276;48.392;9.950;2023-03-01T15:41:00;8.50;90.30
580;DHT22;276;48.392;9.950;2023-03-01T15:43:54;8.50;90.30
580;DHT22;276;48.392;9.950;2023-03-01T15:46:31;8.50;90.20
580;DHT22;276;48.392;9.950;2023-03-01T15:51:54;8.40;90.30
580;DHT22;276;48.392;9.950;2023-03-01T15:54:22;8.40;90.40
580;DHT22;276;48.392;9.950;2023-03-01T15:56:49;8.40;90.20
580;DHT22;276;48.392;9.950;2023-03-01T15:59:20;8.30;90.20
580;DHT22;276;48.392;9.950;2023-03-01T16:01:50;8.30;90.30
580;DHT22;276;48.392;9.950;2023-03-01T16:04:18;8.20;90.40
580;DHT22;276;48.392;9.950;2023-03-01T16:06:53;8.20;90.50
580;DHT22;276;48.392;9.950;2023-03-01T16:09:24;8.20;90.60
580;DHT22;276;48.392;9.950;2023-03-01T16:11:51;8.30;90.60
580;DHT22;276;48.392;9.950;2023-03-01T16:14:22;8.20;90.50
580;DHT22;276;48.392;9.950;2023-03-01T16:16:50;8.10;90.50
580;DHT22;276;48.392;9.950;2023-03-01T16:19:20;8.10;90.70
580;DHT22;276;48.392;9.950;2023-03-01T16:21:46;8.00;90.90
580;DHT22;276;48.392;9.950;2023-03-01T16:24:15;8.00;91.20
580;DHT22;276;48.392;9.950;2023-03-01T16:26:40;7.90;91.10
580;DHT22;276;48.392;9.950;2023-03-01T16:29:07;7.90;91.00
580;DHT22;276;48.392;9.950;2023-03-01T16:31:33;7.80;91.00
580;DHT22;276;48.392;9.950;2023-03-01T16:33:59;7.90;91.10
580;DHT22;276;48.392;9.950;2023-03-01T16:36:30;7.90;91.00
580;DHT22;276;48.392;9.950;2023-03-01T16:38:58;7.90;91.00
580;DHT22;276;48.392;9.950;2023-03-01T16:41:24;7.90;91.00
580;DHT22;276;48.392;9.950;2023-03-01T16:43:54;8.00;91.10
580;DHT22;276;48.392;9.950;2023-03-01T16:46:23;8.00;91.00
580;DHT22;276;48.392;9.950;2023-03-01T16:48:54;8.10;91.00
580;DHT22;276;48.392;9.950;2023-03-01T16:51:21;8.10;91.00
580;DHT22;276;48.392;9.950;2023-03-01T16:53:50;8.10;91.00
580;DHT22;276;48.392;9.950;2023-03-01T16:56:17;8.10;91.00
580;DHT22;276;48.392;9.950;2023-03-01T16:58:43;8.10;91.30
580;DHT22;276;48.392;9.950;2023-03-01T17:01:17;8.20;91.10
580;DHT22;276;48.392;9.950;2023-03-01T17:03:47;8.20;91.10
580;DHT22;276;48.392;9.950;2023-03-01T17:06:17;8.10;91.00
580;DHT22;276;48.392;9.950;2023-03-01T17:08:45;8.10;91.10
580;DHT22;276;48.392;9.950;2023-03-01T17:11:16;8.20;91.10
580;DHT22;276;48.392;9.950;2023-03-01T17:13:45;8.20;91.20
580;DHT22;276;48.392;9.950;2023-03-01T17:16:14;8.20;91.20
580;DHT22;276;48.392;9.950;2023-03-01T17:18:44;8.30;91.20
580;DHT22;276;48.392;9.950;2023-03-01T17:21:10;8.30;91.20
580;DHT22;276;48.392;9.950;2023-03-01T17:23:38;8.30;91.20
580;DHT22;276;48.392;9.950;2023-03-01T17:26:07;8.30;91.20
580;DHT22;276;48.392;9.950;2023-03-01T17:28:34;8.30;91.20
580;DHT22;276;48.392;9.950;2023-03-01T17:31:04;8.30;91.20
580;DHT22;276;48.392;9.950;2023-03-01T17:33:33;8.30;91.20
580;DHT22;276;48.392;9.950;2023-03-01T17:35:59;8.40;91.30
580;DHT22;276;48.392;9.950;2023-03-01T17:38:25;8.30;91.30
580;DHT22;276;48.392;9.950;2023-03-01T17:40:51;8.30;91.30
580;DHT22;276;48.392;9.950;2023-03-01T17:43:19;8.30;91.30
580;DHT22;276;48.392;9.950;2023-03-01T17:45:49;8.40;91.30
580;DHT22;276;48.392;9.950;2023-03-01T17:48:18;8.30;91.20
580;DHT22;276;48.392;9.950;2023-03-01T17:50:45;8.40;91.30
580;DHT22;276;48.392;9.950;2023-03-01T17:53:11;8.40;91.30
580;DHT22;276;48.392;9.950;2023-03-01T17:55:40;8.40;91.40
580;DHT22;276;48.392;9.950;2023-03-01T17:58:13;8.50;91.40
580;DHT22;276;48.392;9.950;2023-03-01T18:00:47;8.50;91.40
580;DHT22;276;48.392;9.950;2023-03-01T18:03:13;8.50;91.30
580;DHT22;276;48.392;9.950;2023-03-01T18:05:39;8.50;91.30
580;DHT22;276;48.392;9.950;2023-03-01T18:08:05;8.50;91.30
580;DHT22;276;48.392;9.950;2023-03-01T18:10:31;8.50;91.60
580;DHT22;276;48.392;9.950;2023-03-01T18:12:57;8.50;91.30
580;DHT22;276;48.392;9.950;2023-03-01T18:15:24;8.60;91.40
580;DHT22;276;48.392;9.950;2023-03-01T18:17:51;8.60;91.40
580;DHT22;276;48.392;9.950;2023-03-01T18:20:17;8.60;91.40
580;DHT22;276;48.392;9.950;2023-03-01T18:22:43;8.60;91.70
580;DHT22;276;48.392;9.950;2023-03-01T18:25:10;8.60;91.40
580;DHT22;276;48.392;9.950;2023-03-01T18:27:35;8.60;91.40
580;DHT22;276;48.392;9.950;2023-03-01T18:30:05;8.60;91.40
580;DHT22;276;48.392;9.950;2023-03-01T18:32:34;8.60;91.30
580;DHT22;276;48.392;9.950;2023-03-01T18:34:59;8.60;91.30
580;DHT22;276;48.392;9.950;2023-03-01T18:37:27;8.60;91.30
580;DHT22;276;48.392;9.950;2023-03-01T18:39:53;8.60;91.30
580;DHT22;276;48.392;9.950;2023-03-01T18:42:19;8.60;91.30
580;DHT22;276;48.392;9.950;2023-03-01T18:44:46;8.60;91.40
580;DHT22;276;48.392;9.950;2023-03-01T18:47:15;8.60;91.40
580;DHT22;276;48.392;9.950;2023-03-01T18:49:43;8.50;91.50
580;DHT22;276;48.392;9.950;2023-03-01T18:52:09;8.50;91.60
580;DHT22;276;48.392;9.950;2023-03-01T18:54:34;8.40;91.70
580;DHT22;276;48.392;9.950;2023-03-01T18:57:00;8.40;91.80
580;DHT22;276;48.392;9.950;2023-03-01T18:59:26;8.40;91.90
580;DHT22;276;48.392;9.950;2023-03-01T19:01:52;8.30;91.90
580;DHT22;276;48.392;9.950;2023-03-01T19:04:17;8.40;92.00
580;DHT22;276;48.392;9.950;2023-03-01T19:06:43;8.30;92.00
580;DHT22;276;48.392;9.950;2023-03-01T19:09:09;8.30;92.10
580;DHT22;276;48.392;9.950;2023-03-01T19:11:35;8.30;92.20
580;DHT22;276;48.392;9.950;2023-03-01T19:14:02;8.20;92.20
580;DHT22;276;48.392;9.950;2023-03-01T19:16:29;8.20;92.30
580;DHT22;276;48.392;9.950;2023-03-01T19:19:00;8.20;92.40
580;DHT22;276;48.392;9.950;2023-03-01T19:21:29;8.10;92.40
580;DHT22;276;48.392;9.950;2023-03-01T19:23:56;8.20;92.50